Time;durP1;ratioP1;P1;durP2;ratioP2;P2;SDS_P1;SDS_P2;PMS_P1;PMS_P2;Temp;Humidity;BMP_temperature;BMP_pressure;BME280_temperature;BME280_humidity;BME280_pressure;Samples;Min_cycle;Max_cycle;Signal;HPM_P1;HPM_P2
2022/06/13 00:01:28;;;;;;;1.85;1.75;;;22.40;71.20;;;;;;4982748;28;20268;-69
2022/06/13 00:03:55;;;;;;;2.05;1.95;;;22.40;71.30;;;;;;4978176;28;20192;-69
2022/06/13 00:06:21;;;;;;;2.10;2.00;;;22.40;70.50;;;;;;4978762;28;20185;-70
2022/06/13 00:08:48;;;;;;;1.80;1.70;;;22.40;70.50;;;;;;4976166;28;20219;-69
2022/06/13 00:11:19;;;;;;;2.20;2.00;;;22.40;70.40;;;;;;5006686;28;20215;-69
2022/06/13 00:13:51;;;;;;;2.08;1.98;;;22.40;70.40;;;;;;4996620;28;20184;-69
2022/06/13 00:16:17;;;;;;;2.08;1.85;;;22.40;70.40;;;;;;4996519;28;20659;-69
2022/06/13 00:18:47;;;;;;;1.80;1.70;;;22.40;70.40;;;;;;5027476;28;20710;-69
2022/06/13 00:21:19;;;;;;;1.98;1.83;;;22.40;70.50;;;;;;4992741;28;20197;-69
2022/06/13 00:23:46;;;;;;;1.80;1.70;;;22.40;70.50;;;;;;4976891;28;20315;-69
2022/06/13 00:26:13;;;;;;;2.28;2.08;;;22.40;70.50;;;;;;4993094;28;20400;-69
2022/06/13 00:28:39;;;;;;;1.83;1.73;;;22.40;70.50;;;;;;4976070;28;20240;-69
2022/06/13 00:31:05;;;;;;;2.00;1.80;;;22.40;70.40;;;;;;5009309;28;20287;-69
2022/06/13 00:33:31;;;;;;;1.98;1.88;;;22.30;70.40;;;;;;4992952;28;20185;-70
2022/06/13 00:35:56;;;;;;;1.80;1.70;;;22.30;70.40;;;;;;4976906;28;20217;-69
2022/06/13 00:38:22;;;;;;;1.80;1.70;;;22.40;70.50;;;;;;5008990;28;20216;-69
2022/06/13 00:40:48;;;;;;;1.98;1.80;;;22.40;70.50;;;;;;4976312;28;20275;-69
2022/06/13 00:43:16;;;;;;;2.05;1.80;;;22.40;70.60;;;;;;5009421;28;20185;-69
2022/06/13 00:45:43;;;;;;;1.80;1.70;;;22.30;70.40;;;;;;4992845;28;20188;-69
2022/06/13 00:48:12;;;;;;;1.85;1.75;;;22.40;70.50;;;;;;4994242;28;20200;-69
2022/06/13 00:50:55;;;;;;;1.63;1.52;;;22.40;70.70;;;;;;4992319;28;20295;-69
2022/06/13 00:53:32;;;;;;;2.13;1.95;;;22.30;70.60;;;;;;5009048;28;20260;-69
2022/06/13 00:56:10;;;;;;;1.70;1.60;;;22.30;70.50;;;;;;4992905;28;20177;-69
2022/06/13 00:58:47;;;;;;;1.80;1.70;;;22.30;70.50;;;;;;4993620;28;20200;-69
2022/06/13 01:01:14;;;;;;;1.70;1.60;;;22.30;70.60;;;;;;4992804;28;20193;-69
2022/06/13 01:03:43;;;;;;;2.08;1.90;;;22.30;70.50;;;;;;4976034;28;20192;-69
2022/06/13 01:06:09;;;;;;;1.85;1.75;;;22.30;70.50;;;;;;4992670;28;20208;-69
2022/06/13 01:08:38;;;;;;;1.80;1.70;;;22.30;70.40;;;;;;4991925;28;20295;-69
2022/06/13 01:11:20;;;;;;;1.70;1.60;;;22.30;70.50;;;;;;4976157;28;20274;-70
2022/06/13 01:14:18;;;;;;;1.58;1.48;;;22.40;71.30;;;;;;4976222;28;20653;-69
2022/06/13 01:16:47;;;;;;;2.53;1.80;;;22.30;70.50;;;;;;4992452;28;20177;-69
2022/06/13 01:19:52;;;;;;;1.70;1.60;;;22.30;70.50;;;;;;4975613;28;20236;-70
2022/06/13 01:22:59;;;;;;;1.75;1.65;;;22.30;70.50;;;;;;4976155;28;20560;-69
2022/06/13 01:26:11;;;;;;;1.73;1.63;;;22.30;70.40;;;;;;4976572;28;20231;-70
2022/06/13 01:29:07;;;;;;;1.60;1.50;;;22.30;70.60;;;;;;4967359;28;20233;-68
2022/06/13 01:31:57;;;;;;;1.60;1.50;;;22.30;70.60;;;;;;4992972;28;20240;-69
2022/06/13 01:35:12;;;;;;;1.50;1.40;;;22.30;70.60;;;;;;4975493;28;20192;-69
2022/06/13 01:38:07;;;;;;;1.73;1.40;;;22.30;70.50;;;;;;4991706;28;20184;-69
2022/06/13 01:41:01;;;;;;;1.83;1.73;;;22.30;70.60;;;;;;5008100;28;20185;-69
2022/06/13 01:44:02;;;;;;;1.60;1.50;;;22.30;70.60;;;;;;4975761;28;20188;-70
2022/06/13 01:46:50;;;;;;;2.25;1.70;;;22.30;70.60;;;;;;4976046;28;20217;-69
2022/06/13 01:49:32;;;;;;;1.50;1.40;;;22.30;70.70;;;;;;4992869;28;20766;-69
2022/06/13 01:52:18;;;;;;;1.70;1.60;;;22.30;70.70;;;;;;4975872;28;20189;-69
2022/06/13 01:55:01;;;;;;;1.60;1.50;;;22.30;70.70;;;;;;4976561;28;20275;-69
2022/06/13 01:57:50;;;;;;;1.70;1.60;;;22.30;70.80;;;;;;4976161;28;20181;-69
2022/06/13 02:00:26;;;;;;;1.55;1.45;;;22.30;70.70;;;;;;4991919;28;20232;-70
2022/06/13 02:03:33;;;;;;;1.50;1.40;;;22.30;70.60;;;;;;4992528;28;20184;-69
2022/06/13 02:06:18;;;;;;;1.63;1.52;;;22.30;70.80;;;;;;4917249;29;20190;-69
2022/06/13 02:08:55;;;;;;;2.33;1.60;;;22.30;70.70;;;;;;4916479;29;20215;-68
2022/06/13 02:11:34;;;;;;;1.50;1.40;;;22.30;70.90;;;;;;4952545;28;20235;-69
2022/06/13 02:14:34;;;;;;;1.80;1.70;;;22.30;70.70;;;;;;4975917;28;20196;-70
2022/06/13 02:17:10;;;;;;;1.40;1.00;;;22.30;70.80;;;;;;4979377;28;20180;-70
2022/06/13 02:19:52;;;;;;;1.60;1.50;;;22.30;70.90;;;;;;4994925;28;20212;-69
2022/06/13 02:22:49;;;;;;;2.08;1.40;;;22.30;70.90;;;;;;4995602;28;20673;-69
2022/06/13 02:25:31;;;;;;;2.03;1.50;;;22.30;70.80;;;;;;5011584;28;20197;-69
2022/06/13 02:28:11;;;;;;;1.73;1.63;;;22.30;70.80;;;;;;4995548;28;20173;-69
2022/06/13 02:30:46;;;;;;;1.33;1.23;;;22.30;70.90;;;;;;4978238;28;20216;-69
2022/06/13 02:33:32;;;;;;;1.45;1.35;;;22.30;70.80;;;;;;4989324;28;20275;-69
2022/06/13 02:36:39;;;;;;;1.50;1.40;;;22.30;70.90;;;;;;4995120;28;20191;-69
2022/06/13 02:39:16;;;;;;;1.67;1.58;;;22.30;70.80;;;;;;4994343;28;20204;-69
2022/06/13 02:41:51;;;;;;;1.40;1.30;;;22.30;70.90;;;;;;5011715;28;20212;-70
2022/06/13 02:44:30;;;;;;;1.42;1.33;;;22.30;70.80;;;;;;4994779;28;20184;-69
2022/06/13 02:47:25;;;;;;;1.52;1.42;;;22.30;70.80;;;;;;4994554;28;20180;-69
2022/06/13 02:50:01;;;;;;;4.43;1.48;;;22.30;70.90;;;;;;4994010;28;20216;-69
2022/06/13 02:52:44;;;;;;;1.30;1.30;;;22.30;70.90;;;;;;4994674;28;20173;-69
2022/06/13 02:55:13;;;;;;;1.73;1.63;;;22.30;70.90;;;;;;4978791;28;20180;-69
2022/06/13 02:57:57;;;;;;;1.60;1.42;;;22.30;71.00;;;;;;4995034;28;20185;-69
2022/06/13 03:01:14;;;;;;;1.75;1.60;;;22.30;70.90;;;;;;4994451;28;20196;-69
2022/06/13 03:03:47;;;;;;;1.40;1.30;;;22.30;70.90;;;;;;4994873;28;20189;-70
2022/06/13 03:06:31;;;;;;;1.50;1.40;;;22.30;70.90;;;;;;4995019;28;20196;-69
2022/06/13 03:09:31;;;;;;;1.45;1.38;;;22.30;70.90;;;;;;4994360;28;20220;-69
2022/06/13 03:12:19;;;;;;;1.60;1.50;;;22.30;71.00;;;;;;4995363;28;20193;-69
2022/06/13 03:15:05;;;;;;;1.50;1.40;;;22.30;70.90;;;;;;4994830;28;20196;-69
2022/06/13 03:18:08;;;;;;;1.27;1.27;;;22.30;70.90;;;;;;4995182;28;20193;-69
2022/06/13 03:21:00;;;;;;;1.23;1.23;;;22.30;71.00;;;;;;4993914;28;20656;-69
2022/06/13 03:23:39;;;;;;;1.58;1.48;;;22.30;71.00;;;;;;4994902;28;20181;-69
2022/06/13 03:26:28;;;;;;;1.70;1.60;;;22.30;71.00;;;;;;4995847;28;20169;-70
2022/06/13 03:29:27;;;;;;;1.58;1.48;;;22.30;71.00;;;;;;4994634;28;20223;-69
2022/06/13 03:32:02;;;;;;;1.40;1.30;;;22.20;70.90;;;;;;4975171;28;20673;-69
2022/06/13 03:34:36;;;;;;;1.30;1.25;;;22.30;71.00;;;;;;4994495;28;20271;-69
2022/06/13 03:37:14;;;;;;;1.50;1.40;;;22.30;71.00;;;;;;4994775;28;20224;-69
2022/06/13 03:40:09;;;;;;;1.20;1.20;;;22.30;71.00;;;;;;4993674;28;20227;-69
2022/06/13 03:42:51;;;;;;;1.30;1.20;;;22.30;71.00;;;;;;4994355;28;20189;-69
2022/06/13 03:45:24;;;;;;;1.50;1.40;;;22.20;70.90;;;;;;4994410;28;20203;-69
2022/06/13 03:48:01;;;;;;;1.20;1.10;;;22.20;70.90;;;;;;4994461;28;20188;-69
2022/06/13 03:50:38;;;;;;;1.25;1.25;;;22.30;71.80;;;;;;4994050;28;20213;-69
2022/06/13 03:53:17;;;;;;;1.52;1.30;;;22.20;70.90;;;;;;4994359;28;20195;-70
2022/06/13 03:56:17;;;;;;;1.40;1.30;;;22.30;71.20;;;;;;4994683;28;20192;-69
2022/06/13 03:58:55;;;;;;;1.40;1.30;;;22.20;71.00;;;;;;4994445;28;20216;-69
2022/06/13 04:01:28;;;;;;;1.27;1.20;;;22.20;71.00;;;;;;4978334;28;20235;-69
2022/06/13 04:04:01;;;;;;;1.38;1.27;;;22.20;70.90;;;;;;4978142;28;20173;-70
2022/06/13 04:06:38;;;;;;;1.60;1.50;;;22.20;71.00;;;;;;4978332;28;20283;-69
2022/06/13 04:09:18;;;;;;;1.20;1.20;;;22.20;71.00;;;;;;4993824;28;20205;-69
2022/06/13 04:12:24;;;;;;;1.40;1.30;;;22.20;71.10;;;;;;4994017;28;20586;-69
2022/06/13 04:15:07;;;;;;;1.40;1.30;;;22.20;71.20;;;;;;4992467;28;20184;-69
2022/06/13 04:18:01;;;;;;;1.60;1.50;;;22.20;71.10;;;;;;4992999;28;20176;-69
2022/06/13 04:21:05;;;;;;;1.30;1.20;;;22.20;71.00;;;;;;4976096;28;20272;-69
2022/06/13 04:23:50;;;;;;;1.58;1.48;;;22.20;71.10;;;;;;4993136;28;20172;-69
2022/06/13 04:26:45;;;;;;;1.60;1.50;;;22.20;71.20;;;;;;4977074;28;20196;-69
2022/06/13 04:29:38;;;;;;;1.63;1.52;;;22.20;71.20;;;;;;4993843;28;20276;-69
2022/06/13 04:32:12;;;;;;;1.10;1.10;;;22.20;71.30;;;;;;4977261;28;20289;-69
2022/06/13 04:34:50;;;;;;;1.20;1.10;;;22.20;71.20;;;;;;4993012;28;20283;-69
2022/06/13 04:37:18;;;;;;;1.30;1.20;;;22.20;71.30;;;;;;4992401;28;20200;-69
2022/06/13 04:39:49;;;;;;;1.27;1.27;;;22.20;71.30;;;;;;4992045;28;20592;-69
2022/06/13 04:42:17;;;;;;;1.35;1.30;;;22.20;71.20;;;;;;4994442;28;20212;-69
2022/06/13 04:44:45;;;;;;;1.35;1.25;;;22.20;71.30;;;;;;4993112;28;20199;-69
2022/06/13 04:47:16;;;;;;;1.40;1.30;;;22.20;72.10;;;;;;4993272;28;20189;-69
2022/06/13 04:49:58;;;;;;;1.35;1.25;;;22.20;71.30;;;;;;4976164;28;20213;-69
2022/06/13 04:52:30;;;;;;;2.08;1.55;;;22.20;71.30;;;;;;4993237;28;20185;-69
2022/06/13 04:55:25;;;;;;;1.40;1.30;;;22.20;71.30;;;;;;4993328;28;20189;-70
2022/06/13 04:57:51;;;;;;;1.40;1.30;;;22.20;71.30;;;;;;4993090;28;20637;-69
2022/06/13 05:00:18;;;;;;;1.40;1.30;;;22.20;71.30;;;;;;4992882;28;20214;-69
2022/06/13 05:02:49;;;;;;;1.48;1.38;;;22.20;71.30;;;;;;4977166;28;20283;-69
2022/06/13 05:05:46;;;;;;;1.20;1.10;;;22.20;71.30;;;;;;4993150;28;20256;-69
2022/06/13 05:08:30;;;;;;;1.52;1.40;;;22.20;71.30;;;;;;4993871;28;20223;-69
2022/06/13 05:11:39;;;;;;;2.10;1.40;;;22.20;71.30;;;;;;4991983;28;20295;-69
2022/06/13 05:14:12;;;;;;;1.17;1.17;;;22.20;71.20;;;;;;4974346;28;20200;-69
2022/06/13 05:16:50;;;;;;;1.15;1.15;;;22.20;71.20;;;;;;4976567;28;20177;-70
2022/06/13 05:20:01;;;;;;;1.00;1.00;;;22.20;71.30;;;;;;4975600;28;20208;-69
2022/06/13 05:22:45;;;;;;;1.38;1.27;;;22.20;71.00;;;;;;4979027;28;20243;-69
2022/06/13 05:25:43;;;;;;;1.38;1.27;;;22.20;71.00;;;;;;4993782;28;20648;-70
2022/06/13 05:28:15;;;;;;;1.02;1.02;;;22.20;71.00;;;;;;4992321;28;20260;-69
2022/06/13 05:30:48;;;;;;;1.30;1.20;;;22.20;70.90;;;;;;4991206;28;20236;-69
2022/06/13 05:33:22;;;;;;;3.20;1.30;;;22.20;70.80;;;;;;4991864;28;20204;-69
2022/06/13 05:35:53;;;;;;;1.40;1.30;;;22.20;70.90;;;;;;4992057;28;20205;-69
2022/06/13 05:38:51;;;;;;;1.40;1.30;;;22.20;70.70;;;;;;4991875;28;20201;-69
2022/06/13 05:41:17;;;;;;;1.50;1.17;;;22.20;70.80;;;;;;4991115;28;20668;-69
2022/06/13 05:43:43;;;;;;;1.45;1.35;;;22.20;70.70;;;;;;4992380;28;20193;-69
2022/06/13 05:46:17;;;;;;;2.15;1.50;;;22.20;70.60;;;;;;4992279;28;20188;-69
2022/06/13 05:48:43;;;;;;;1.58;1.48;;;22.20;70.60;;;;;;4992331;28;20208;-69
2022/06/13 05:51:09;;;;;;;1.30;1.20;;;22.20;70.70;;;;;;4997095;28;20227;-69
2022/06/13 05:53:35;;;;;;;1.70;1.48;;;22.20;70.60;;;;;;4996923;28;20197;-69
2022/06/13 05:56:02;;;;;;;1.35;1.25;;;22.20;70.60;;;;;;5003525;28;20191;-69
2022/06/13 05:58:28;;;;;;;1.42;1.33;;;22.20;70.60;;;;;;5015838;28;20290;-69
2022/06/13 06:01:00;;;;;;;1.48;1.33;;;22.20;70.70;;;;;;5015606;28;20224;-69
2022/06/13 06:03:27;;;;;;;0.95;0.95;;;22.20;70.80;;;;;;5015957;28;20192;-69
2022/06/13 06:05:55;;;;;;;1.20;1.20;;;22.20;70.90;;;;;;5015695;28;20190;-69
2022/06/13 06:08:25;;;;;;;1.35;1.10;;;22.20;70.70;;;;;;4997113;28;20216;-69
2022/06/13 06:10:54;;;;;;;1.30;1.10;;;22.20;70.70;;;;;;4979488;28;20258;-70
2022/06/13 06:13:20;;;;;;;1.40;1.20;;;22.20;70.70;;;;;;4996304;28;20184;-69
2022/06/13 06:15:48;;;;;;;1.30;1.20;;;22.20;70.60;;;;;;4979516;28;20193;-69
2022/06/13 06:18:15;;;;;;;1.48;1.38;;;22.20;70.70;;;;;;4995652;28;20205;-69
2022/06/13 06:20:41;;;;;;;2.45;1.48;;;22.20;70.50;;;;;;4979182;28;20215;-69
2022/06/13 06:23:09;;;;;;;1.40;1.30;;;22.20;70.60;;;;;;4979654;28;20185;-69
2022/06/13 06:25:35;;;;;;;1.60;1.50;;;22.20;70.60;;;;;;4980053;28;20191;-69
2022/06/13 06:28:02;;;;;;;3.42;1.52;;;22.20;70.50;;;;;;4996800;28;20243;-69
2022/06/13 06:30:29;;;;;;;2.33;1.40;;;22.20;70.50;;;;;;4994905;28;20231;-69
2022/06/13 06:32:57;;;;;;;1.50;1.40;;;22.20;70.50;;;;;;4995806;28;20192;-70
2022/06/13 06:35:26;;;;;;;1.38;1.17;;;22.20;70.60;;;;;;4979268;28;20211;-69
2022/06/13 06:37:54;;;;;;;1.35;1.25;;;22.20;70.50;;;;;;4995652;28;20189;-69
2022/06/13 06:40:24;;;;;;;1.20;1.10;;;22.20;70.50;;;;;;4978556;28;20605;-69
2022/06/13 06:42:51;;;;;;;1.25;1.20;;;22.20;70.40;;;;;;4995596;28;20637;-70
2022/06/13 06:45:17;;;;;;;1.40;1.30;;;22.20;70.30;;;;;;4995451;28;20675;-69
2022/06/13 06:47:44;;;;;;;1.63;1.40;;;22.20;70.30;;;;;;4995036;28;20258;-69
2022/06/13 06:50:18;;;;;;;1.15;1.15;;;22.20;70.20;;;;;;4994615;28;20311;-69
2022/06/13 06:52:44;;;;;;;1.27;1.10;;;22.20;70.30;;;;;;4994846;28;20703;-69
2022/06/13 07:00:51;;;;;;;1.90;1.70;;;22.20;70.40;;;;;;4995107;28;20181;-69
2022/06/13 07:03:17;;;;;;;1.55;1.45;;;22.20;70.10;;;;;;4996272;28;20184;-69
2022/06/13 07:05:45;;;;;;;1.70;1.50;;;22.20;70.10;;;;;;4994728;28;20223;-69
2022/06/13 07:08:11;;;;;;;2.08;1.63;;;22.20;70.10;;;;;;4995170;28;20205;-69
2022/06/13 07:10:37;;;;;;;1.45;1.35;;;22.10;70.00;;;;;;4994419;28;20216;-69
2022/06/13 07:13:03;;;;;;;2.20;1.20;;;22.10;70.00;;;;;;4995038;28;20196;-69
2022/06/13 07:15:29;;;;;;;1.50;1.30;;;22.20;70.20;;;;;;4994895;28;20185;-70
2022/06/13 07:17:55;;;;;;;1.42;1.30;;;22.20;70.00;;;;;;4978402;28;20195;-70
2022/06/13 07:20:22;;;;;;;1.83;1.20;;;22.20;70.10;;;;;;4978585;28;20189;-69
2022/06/13 07:22:51;;;;;;;1.80;1.60;;;22.20;70.20;;;;;;4994817;28;20177;-69
2022/06/13 07:25:23;;;;;;;1.42;1.33;;;22.20;70.40;;;;;;4994797;28;20184;-69
2022/06/13 07:27:49;;;;;;;1.65;1.10;;;22.10;70.10;;;;;;4995807;28;20181;-69
2022/06/13 07:30:19;;;;;;;1.60;1.30;;;22.10;69.90;;;;;;4993987;28;20217;-69
2022/06/13 07:32:45;;;;;;;1.65;1.10;;;22.20;70.30;;;;;;4973449;28;20197;-69
2022/06/13 07:35:15;;;;;;;1.77;1.25;;;22.10;70.00;;;;;;4993759;28;20216;-69
2022/06/13 07:40:28;;;;;;;1.58;1.33;;;22.10;70.20;;;;;;4994576;28;20227;-69
2022/06/13 07:43:01;;;;;;;2.47;1.30;;;22.10;70.30;;;;;;4994886;28;20191;-69
2022/06/13 07:45:30;;;;;;;1.40;1.30;;;22.20;70.40;;;;;;4978380;28;20198;-69
2022/06/13 07:47:57;;;;;;;1.08;1.00;;;22.20;70.30;;;;;;4994797;28;20195;-69
2022/06/13 07:50:26;;;;;;;1.20;1.10;;;22.20;70.20;;;;;;4994946;28;20223;-69
2022/06/13 07:52:53;;;;;;;1.30;1.20;;;22.10;70.10;;;;;;4994410;28;20185;-69
2022/06/13 07:55:22;;;;;;;1.55;1.10;;;22.20;70.20;;;;;;4994469;28;20180;-69
2022/06/13 07:57:48;;;;;;;1.60;1.50;;;22.10;70.00;;;;;;4977992;28;20185;-69
2022/06/13 08:00:26;;;;;;;1.35;1.25;;;22.20;70.00;;;;;;4993333;28;20862;-70
2022/06/13 08:02:56;;;;;;;1.80;1.70;;;22.20;71.00;;;;;;4994397;28;20195;-69
2022/06/13 08:05:22;;;;;;;1.48;1.38;;;22.30;70.10;;;;;;4994500;28;20209;-70
2022/06/13 08:07:48;;;;;;;1.27;1.20;;;22.20;70.00;;;;;;4994898;28;20220;-69
2022/06/13 08:10:14;;;;;;;1.55;1.45;;;22.30;70.10;;;;;;4992236;28;20203;-70
2022/06/13 08:12:43;;;;;;;1.50;1.40;;;22.30;70.10;;;;;;4998451;28;20277;-69
2022/06/13 08:15:10;;;;;;;1.30;1.20;;;22.30;69.80;;;;;;5031309;28;20271;-69
2022/06/13 08:17:36;;;;;;;1.60;1.50;;;22.30;70.00;;;;;;5013747;28;20179;-69
2022/06/13 08:20:03;;;;;;;1.50;1.40;;;22.30;70.00;;;;;;5028455;28;20652;-69
2022/06/13 08:22:29;;;;;;;2.20;1.52;;;22.30;69.60;;;;;;5001277;28;20189;-71
2022/06/13 08:24:55;;;;;;;1.45;1.33;;;22.30;69.40;;;;;;4976664;28;20756;-70
2022/06/13 08:27:21;;;;;;;1.92;1.67;;;22.30;69.40;;;;;;4976961;28;20189;-70
2022/06/13 08:29:47;;;;;;;2.55;1.40;;;22.30;69.70;;;;;;4992913;28;20200;-70
2022/06/13 08:32:14;;;;;;;1.60;1.50;;;22.30;69.70;;;;;;4993097;28;20718;-70
2022/06/13 08:34:39;;;;;;;2.08;1.20;;;22.30;69.40;;;;;;4976740;28;20196;-70
2022/06/13 08:37:05;;;;;;;2.15;1.50;;;22.40;69.80;;;;;;4993138;28;20173;-70
2022/06/13 08:39:31;;;;;;;1.73;1.40;;;22.40;69.60;;;;;;4992504;28;20209;-70
2022/06/13 08:42:17;;;;;;;1.40;1.30;;;22.40;69.50;;;;;;4993317;28;20255;-70
2022/06/13 08:45:04;;;;;;;2.13;1.48;;;22.40;69.20;;;;;;4993224;28;20177;-70
2022/06/13 08:47:45;;;;;;;1.38;1.27;;;22.40;69.40;;;;;;4994117;28;20215;-70
2022/06/13 08:50:31;;;;;;;1.67;1.42;;;22.40;69.50;;;;;;4992135;28;20249;-70
2022/06/13 08:53:22;;;;;;;1.58;1.48;;;22.50;69.70;;;;;;4976690;28;20212;-70
2022/06/13 08:56:08;;;;;;;1.35;1.20;;;22.40;69.50;;;;;;4992912;28;20185;-70
2022/06/13 08:58:42;;;;;;;2.28;1.45;;;22.50;69.50;;;;;;4992815;28;20294;-70
2022/06/13 09:01:22;;;;;;;2.05;1.50;;;22.50;69.60;;;;;;4993573;28;20712;-70
2022/06/13 09:03:55;;;;;;;2.17;1.60;;;22.50;69.50;;;;;;4976476;28;20296;-70
2022/06/13 09:06:40;;;;;;;1.40;1.27;;;22.50;69.60;;;;;;4976522;28;20203;-70
2022/06/13 09:09:26;;;;;;;1.88;1.52;;;22.50;69.70;;;;;;4976798;28;20213;-70
2022/06/13 09:12:00;;;;;;;1.63;1.27;;;22.50;69.50;;;;;;4976465;28;20243;-70
2022/06/13 09:15:01;;;;;;;1.48;1.38;;;22.40;69.40;;;;;;4992680;28;20216;-70
2022/06/13 09:17:59;;;;;;;1.55;1.45;;;22.50;69.40;;;;;;4974070;28;20279;-70
2022/06/13 09:21:05;;;;;;;1.35;1.13;;;22.50;69.70;;;;;;4976140;28;20188;-70
2022/06/13 09:23:50;;;;;;;2.45;1.60;;;22.50;69.70;;;;;;4992139;28;20216;-70
2022/06/13 09:26:47;;;;;;;2.00;1.80;;;22.50;69.50;;;;;;4992223;28;20649;-70
2022/06/13 09:29:29;;;;;;;2.03;1.60;;;22.50;69.50;;;;;;4965572;28;20263;-70
2022/06/13 09:32:04;;;;;;;1.63;1.33;;;22.50;69.30;;;;;;4992511;28;20216;-70
2022/06/13 09:34:42;;;;;;;1.30;1.20;;;22.60;69.40;;;;;;4975468;28;20192;-70
2022/06/13 09:37:21;;;;;;;2.40;1.23;;;22.50;69.20;;;;;;4991901;28;20637;-70
2022/06/13 09:39:48;;;;;;;1.85;1.40;;;22.50;69.20;;;;;;4975218;28;20204;-70
2022/06/13 09:42:44;;;;;;;1.85;1.50;;;22.50;69.10;;;;;;4992156;28;20189;-70
2022/06/13 09:45:57;;;;;;;2.40;1.27;;;22.50;69.30;;;;;;4976465;28;20181;-70
2022/06/13 09:48:46;;;;;;;1.40;1.30;;;22.50;69.50;;;;;;4975973;28;20590;-70
2022/06/13 09:51:41;;;;;;;1.52;1.42;;;22.50;69.30;;;;;;4992499;28;20201;-70
2022/06/13 09:54:50;;;;;;;1.48;1.38;;;22.50;69.20;;;;;;4992207;28;20177;-71
2022/06/13 09:57:52;;;;;;;2.53;1.48;;;22.50;69.40;;;;;;4992309;28;20201;-70
2022/06/13 10:00:41;;;;;;;1.83;1.48;;;22.50;69.20;;;;;;4992058;28;20255;-70
2022/06/13 10:03:52;;;;;;;1.52;1.38;;;22.50;69.60;;;;;;4992067;28;20275;-70
2022/06/13 10:06:41;;;;;;;1.85;1.70;;;22.50;69.40;;;;;;4993513;28;20188;-70
2022/06/13 10:09:34;;;;;;;1.60;1.50;;;22.50;69.10;;;;;;5011703;28;20216;-70
2022/06/13 10:12:21;;;;;;;1.50;1.40;;;22.50;69.50;;;;;;4996388;28;20292;-70
2022/06/13 10:15:22;;;;;;;1.65;1.40;;;22.50;69.40;;;;;;4992107;28;20200;-70
2022/06/13 10:18:01;;;;;;;1.65;1.50;;;22.50;69.40;;;;;;4975401;28;20674;-70
2022/06/13 10:20:43;;;;;;;2.55;1.30;;;22.50;69.60;;;;;;4975277;28;20181;-70
2022/06/13 10:23:40;;;;;;;1.52;1.33;;;22.50;69.50;;;;;;4993488;28;20173;-71
2022/06/13 10:26:53;;;;;;;1.83;1.40;;;22.50;69.40;;;;;;4992241;28;20558;-70
2022/06/13 10:29:36;;;;;;;1.85;1.40;;;22.50;69.20;;;;;;4991928;28;20263;-71
2022/06/13 10:32:31;;;;;;;1.50;1.40;;;22.50;68.90;;;;;;4976170;28;20220;-71
2022/06/13 10:35:41;;;;;;;1.75;1.40;;;22.50;69.00;;;;;;4991797;28;20189;-70
2022/06/13 10:38:49;;;;;;;1.75;1.65;;;22.50;69.30;;;;;;4984756;28;20212;-70
2022/06/13 10:41:15;;;;;;;1.65;1.33;;;22.60;68.90;;;;;;4978502;28;20216;-71
2022/06/13 10:43:42;;;;;;;1.63;1.50;;;22.50;68.90;;;;;;4979427;28;20215;-71
2022/06/13 10:46:16;;;;;;;1.98;1.55;;;22.50;68.80;;;;;;4996466;28;20268;-70
2022/06/13 10:48:53;;;;;;;2.60;1.27;;;22.50;69.00;;;;;;4978729;28;20240;-70
2022/06/13 10:51:19;;;;;;;1.95;1.45;;;22.50;69.00;;;;;;4978567;28;20695;-70
2022/06/13 10:54:08;;;;;;;1.25;1.20;;;22.60;69.10;;;;;;4995057;28;20185;-70
2022/06/13 10:56:48;;;;;;;1.35;1.25;;;22.50;69.20;;;;;;4994572;28;20181;-69
2022/06/13 10:59:29;;;;;;;1.67;1.58;;;22.50;68.90;;;;;;4994837;28;20204;-70
2022/06/13 11:02:03;;;;;;;2.70;1.48;;;22.50;69.20;;;;;;4994045;28;20193;-70
2022/06/13 11:04:36;;;;;;;1.70;1.45;;;22.60;69.10;;;;;;4994367;28;20180;-71
2022/06/13 11:07:16;;;;;;;1.27;1.17;;;22.60;69.20;;;;;;4994775;28;20284;-70
2022/06/13 11:09:54;;;;;;;1.98;1.35;;;22.50;69.00;;;;;;4994206;28;20212;-69
2022/06/13 11:12:29;;;;;;;1.40;1.30;;;22.50;69.00;;;;;;4994744;28;20235;-70
2022/06/13 11:24:16;;;;;;;1.40;1.30;;;22.60;69.00;;;;;;4994731;28;20197;-70
2022/06/13 11:29:32;;;;;;;1.30;1.20;;;22.60;68.50;;;;;;4994287;28;20216;-70
2022/06/13 11:32:02;;;;;;;1.25;1.20;;;22.50;68.70;;;;;;4977642;28;20303;-70
2022/06/13 11:34:38;;;;;;;2.42;1.52;;;22.60;69.10;;;;;;4994358;28;20193;-70
2022/06/13 11:37:22;;;;;;;1.52;1.42;;;22.60;69.00;;;;;;4995772;28;20172;-70
2022/06/13 11:39:52;;;;;;;1.70;1.50;;;22.60;69.00;;;;;;4994896;28;20283;-70
2022/06/13 11:42:30;;;;;;;1.30;1.20;;;22.60;69.10;;;;;;4994371;28;20185;-70
2022/06/13 11:45:02;;;;;;;1.52;1.42;;;22.50;69.00;;;;;;4994397;28;20177;-70
2022/06/13 11:47:47;;;;;;;1.17;1.08;;;22.50;68.90;;;;;;4977821;28;20227;-70
2022/06/13 11:50:26;;;;;;;1.45;1.35;;;22.50;68.80;;;;;;4993734;28;20327;-71
2022/06/13 11:56:02;;;;;;;1.45;1.30;;;22.60;68.20;;;;;;4995441;28;20184;-71
2022/06/13 11:58:33;;;;;;;1.33;1.23;;;22.60;68.40;;;;;;4993882;28;20220;-70
2022/06/13 12:01:24;;;;;;;1.60;1.50;;;22.60;68.50;;;;;;4993690;28;20288;-70
2022/06/13 12:04:20;;;;;;;1.30;1.20;;;22.60;68.60;;;;;;4994130;28;20566;-70
2022/06/13 12:06:59;;;;;;;1.38;1.23;;;22.60;68.20;;;;;;4977736;28;20192;-70
2022/06/13 12:09:34;;;;;;;1.30;1.20;;;22.60;68.80;;;;;;4995489;28;20205;-70
2022/06/13 12:12:07;;;;;;;1.38;1.13;;;22.60;68.90;;;;;;4995293;28;20295;-70
2022/06/13 12:14:42;;;;;;;1.75;1.30;;;22.60;68.90;;;;;;4994402;28;20176;-71
2022/06/13 12:17:35;;;;;;;1.45;1.23;;;22.60;68.60;;;;;;4994465;28;20632;-70
2022/06/13 12:20:03;;;;;;;1.33;1.23;;;22.60;68.30;;;;;;4976521;28;20201;-70
2022/06/13 12:22:53;;;;;;;1.50;1.17;;;22.60;68.60;;;;;;4994178;28;20238;-71
2022/06/13 12:25:31;;;;;;;1.67;1.30;;;22.60;68.70;;;;;;4976625;28;20184;-70
2022/06/13 12:28:10;;;;;;;1.33;1.23;;;22.60;68.80;;;;;;4992704;28;20188;-70
2022/06/13 12:30:49;;;;;;;1.42;1.33;;;22.60;68.30;;;;;;4992235;28;20311;-70
2022/06/13 12:33:18;;;;;;;1.40;1.30;;;22.60;68.50;;;;;;4976813;28;20251;-70
2022/06/13 12:36:20;;;;;;;1.50;1.40;;;22.60;68.70;;;;;;4992793;28;20283;-70
2022/06/13 12:39:31;;;;;;;1.45;1.35;;;22.60;68.50;;;;;;4976796;28;20196;-71
2022/06/13 12:42:37;;;;;;;1.17;1.08;;;22.60;68.40;;;;;;4976072;28;20192;-70
2022/06/13 12:45:44;;;;;;;1.30;1.20;;;22.60;68.10;;;;;;4992904;28;20173;-70
2022/06/13 12:48:46;;;;;;;1.48;1.30;;;22.60;68.60;;;;;;4993078;28;20270;-70
2022/06/13 12:52:03;;;;;;;1.38;1.27;;;22.60;68.40;;;;;;4970438;28;20236;-70
2022/06/13 12:54:44;;;;;;;1.30;1.20;;;22.60;68.40;;;;;;4979777;28;20567;-70
2022/06/13 12:58:03;;;;;;;1.52;1.10;;;22.60;68.20;;;;;;4992937;28;20192;-70
2022/06/13 13:01:10;;;;;;;1.83;1.23;;;22.60;68.20;;;;;;4940303;28;20198;-71
2022/06/13 13:04:04;;;;;;;1.52;1.40;;;22.60;68.40;;;;;;4992757;28;20180;-71
2022/06/13 13:06:53;;;;;;;1.50;1.40;;;22.60;68.50;;;;;;4992855;28;20228;-71
2022/06/13 13:10:18;;;;;;;1.48;1.38;;;22.60;68.30;;;;;;4992470;28;20296;-70
2022/06/13 13:13:17;;;;;;;1.35;1.25;;;22.60;68.10;;;;;;4975744;28;20208;-70
2022/06/13 13:16:26;;;;;;;1.08;0.98;;;22.60;68.20;;;;;;4992671;28;20185;-71
2022/06/13 13:19:12;;;;;;;1.30;1.20;;;22.60;68.00;;;;;;4975616;28;20244;-70
2022/06/13 13:21:49;;;;;;;1.00;1.00;;;22.60;68.00;;;;;;4975693;28;20189;-70
2022/06/13 13:24:38;;;;;;;1.40;1.30;;;22.60;68.20;;;;;;4992560;28;20828;-70
2022/06/13 13:27:13;;;;;;;1.30;1.20;;;22.60;68.30;;;;;;4992417;28;20173;-71
2022/06/13 13:30:05;;;;;;;1.23;1.13;;;22.60;68.50;;;;;;4992309;28;20786;-70
2022/06/13 13:32:56;;;;;;;1.23;1.17;;;22.60;68.20;;;;;;4992252;28;20200;-70
2022/06/13 13:35:41;;;;;;;1.40;1.30;;;22.60;68.20;;;;;;4992526;28;20180;-70
2022/06/13 13:38:26;;;;;;;1.20;1.10;;;22.60;68.20;;;;;;4992581;28;20260;-70
2022/06/13 13:41:33;;;;;;;1.38;1.25;;;22.60;68.50;;;;;;4991352;28;20637;-70
2022/06/13 13:44:12;;;;;;;1.42;1.33;;;22.60;68.40;;;;;;4971503;28;20660;-70
2022/06/13 13:46:54;;;;;;;1.67;1.10;;;22.60;68.40;;;;;;4991464;28;20192;-71
2022/06/13 13:49:35;;;;;;;1.35;1.25;;;22.60;68.30;;;;;;4991829;28;20205;-70
2022/06/13 13:52:23;;;;;;;1.10;1.00;;;22.60;68.20;;;;;;4991289;28;20201;-70
2022/06/13 13:55:01;;;;;;;1.58;1.48;;;22.60;67.70;;;;;;4992009;28;20184;-71
2022/06/13 13:57:39;;;;;;;1.35;1.33;;;22.60;67.80;;;;;;4975821;28;20184;-70
2022/06/13 14:00:51;;;;;;;1.25;1.20;;;22.60;67.70;;;;;;4974425;28;20213;-70
2022/06/13 14:03:37;;;;;;;1.40;1.30;;;22.60;67.70;;;;;;4988143;28;20224;-70
2022/06/13 14:06:15;;;;;;;1.50;1.40;;;22.60;68.00;;;;;;4976312;28;20189;-70
2022/06/13 14:08:45;;;;;;;0.98;0.98;;;22.60;68.00;;;;;;4992044;28;20205;-71
2022/06/13 14:11:12;;;;;;;1.60;1.50;;;22.60;68.20;;;;;;4994344;28;20706;-71
2022/06/13 14:13:47;;;;;;;1.67;1.50;;;22.60;68.30;;;;;;4997039;28;20197;-70
2022/06/13 14:16:21;;;;;;;1.40;1.30;;;22.60;67.50;;;;;;4996126;28;20228;-70
2022/06/13 14:19:18;;;;;;;1.33;1.23;;;22.60;67.90;;;;;;4995628;28;20217;-70